sensor_id;sensor_type;location;lat;lon;timestamp;temperature;humidity
37222;DHT22;23119;51.842;-2.230;2022-12-29T00:01:14;9.40;99.90
37222;DHT22;23119;51.842;-2.230;2022-12-29T00:03:45;9.40;99.90
37222;DHT22;23119;51.842;-2.230;2022-12-29T00:06:10;9.40;99.90
37222;DHT22;23119;51.842;-2.230;2022-12-29T00:08:36;9.40;99.90
37222;DHT22;23119;51.842;-2.230;2022-12-29T00:11:10;9.40;99.90
37222;DHT22;23119;51.842;-2.230;2022-12-29T00:13:37;9.30;99.90
37222;DHT22;23119;51.842;-2.230;2022-12-29T00:16:24;9.40;99.90
37222;DHT22;23119;51.842;-2.230;2022-12-29T00:18:53;9.30;99.90
37222;DHT22;23119;51.842;-2.230;2022-12-29T00:21:23;9.30;99.90
37222;DHT22;23119;51.842;-2.230;2022-12-29T00:24:19;9.30;99.90
37222;DHT22;23119;51.842;-2.230;2022-12-29T00:26:53;9.40;99.90
37222;DHT22;23119;51.842;-2.230;2022-12-29T00:29:38;9.30;99.90
37222;DHT22;23119;51.842;-2.230;2022-12-29T00:32:22;9.40;99.90
37222;DHT22;23119;51.842;-2.230;2022-12-29T00:35:13;9.40;99.90
37222;DHT22;23119;51.842;-2.230;2022-12-29T00:37:45;9.40;99.90
37222;DHT22;23119;51.842;-2.230;2022-12-29T00:40:32;9.40;99.90
37222;DHT22;23119;51.842;-2.230;2022-12-29T00:43:16;9.40;99.90
37222;DHT22;23119;51.842;-2.230;2022-12-29T00:46:04;9.30;99.90
37222;DHT22;23119;51.842;-2.230;2022-12-29T00:48:32;9.30;99.90
37222;DHT22;23119;51.842;-2.230;2022-12-29T00:51:19;9.20;99.90
37222;DHT22;23119;51.842;-2.230;2022-12-29T00:53:47;9.20;99.90
37222;DHT22;23119;51.842;-2.230;2022-12-29T00:56:16;9.30;99.90
37222;DHT22;23119;51.842;-2.230;2022-12-29T00:58:44;9.30;99.90
37222;DHT22;23119;51.842;-2.230;2022-12-29T01:01:12;9.30;99.90
37222;DHT22;23119;51.842;-2.230;2022-12-29T01:03:43;9.30;99.90
37222;DHT22;23119;51.842;-2.230;2022-12-29T01:06:12;9.30;99.90
37222;DHT22;23119;51.842;-2.230;2022-12-29T01:08:38;9.30;99.90
37222;DHT22;23119;51.842;-2.230;2022-12-29T01:11:08;9.30;99.90
37222;DHT22;23119;51.842;-2.230;2022-12-29T01:13:35;9.30;99.90
37222;DHT22;23119;51.842;-2.230;2022-12-29T01:16:04;9.30;99.90
37222;DHT22;23119;51.842;-2.230;2022-12-29T01:18:31;9.30;99.90
37222;DHT22;23119;51.842;-2.230;2022-12-29T01:21:07;9.30;99.90
37222;DHT22;23119;51.842;-2.230;2022-12-29T01:23:40;9.30;99.90
37222;DHT22;23119;51.842;-2.230;2022-12-29T01:26:15;9.30;99.90
37222;DHT22;23119;51.842;-2.230;2022-12-29T01:28:46;9.30;99.90
37222;DHT22;23119;51.842;-2.230;2022-12-29T01:31:15;9.30;99.90
37222;DHT22;23119;51.842;-2.230;2022-12-29T01:33:44;9.30;99.90
37222;DHT22;23119;51.842;-2.230;2022-12-29T01:36:12;9.30;99.90
37222;DHT22;23119;51.842;-2.230;2022-12-29T01:38:42;9.30;99.90
37222;DHT22;23119;51.842;-2.230;2022-12-29T01:41:10;9.30;99.90
37222;DHT22;23119;51.842;-2.230;2022-12-29T01:43:47;9.40;99.90
37222;DHT22;23119;51.842;-2.230;2022-12-29T01:46:28;9.30;99.90
37222;DHT22;23119;51.842;-2.230;2022-12-29T01:49:08;9.40;99.90
37222;DHT22;23119;51.842;-2.230;2022-12-29T01:51:40;9.40;99.90
37222;DHT22;23119;51.842;-2.230;2022-12-29T01:54:15;9.40;99.90
37222;DHT22;23119;51.842;-2.230;2022-12-29T01:56:45;9.40;99.90
37222;DHT22;23119;51.842;-2.230;2022-12-29T01:59:17;9.40;99.90
37222;DHT22;23119;51.842;-2.230;2022-12-29T02:01:54;9.40;99.90
37222;DHT22;23119;51.842;-2.230;2022-12-29T02:04:22;9.40;99.90
37222;DHT22;23119;51.842;-2.230;2022-12-29T02:06:59;9.40;99.90
37222;DHT22;23119;51.842;-2.230;2022-12-29T02:09:26;9.50;99.90
37222;DHT22;23119;51.842;-2.230;2022-12-29T02:11:52;9.50;99.90
37222;DHT22;23119;51.842;-2.230;2022-12-29T02:14:27;9.50;99.90
37222;DHT22;23119;51.842;-2.230;2022-12-29T02:22:30;9.50;99.90
37222;DHT22;23119;51.842;-2.230;2022-12-29T02:34:47;9.50;99.90
37222;DHT22;23119;51.842;-2.230;2022-12-29T02:39:56;9.50;99.90
37222;DHT22;23119;51.842;-2.230;2022-12-29T02:51:12;9.40;99.90
37222;DHT22;23119;51.842;-2.230;2022-12-29T02:53:46;9.30;99.90
37222;DHT22;23119;51.842;-2.230;2022-12-29T02:56:30;9.30;99.90
37222;DHT22;23119;51.842;-2.230;2022-12-29T02:59:04;9.30;99.90
37222;DHT22;23119;51.842;-2.230;2022-12-29T03:08:06;9.10;99.90
37222;DHT22;23119;51.842;-2.230;2022-12-29T03:16:40;9.10;99.90
37222;DHT22;23119;51.842;-2.230;2022-12-29T03:19:30;9.10;99.90
37222;DHT22;23119;51.842;-2.230;2022-12-29T03:22:07;9.10;99.90
37222;DHT22;23119;51.842;-2.230;2022-12-29T03:25:01;9.00;99.90
37222;DHT22;23119;51.842;-2.230;2022-12-29T03:27:40;9.10;99.90
37222;DHT22;23119;51.842;-2.230;2022-12-29T03:30:09;9.00;99.90
37222;DHT22;23119;51.842;-2.230;2022-12-29T03:32:55;9.00;99.90
37222;DHT22;23119;51.842;-2.230;2022-12-29T03:35:26;9.00;99.90
37222;DHT22;23119;51.842;-2.230;2022-12-29T03:37:59;9.00;99.90
37222;DHT22;23119;51.842;-2.230;2022-12-29T03:40:31;9.00;99.90
37222;DHT22;23119;51.842;-2.230;2022-12-29T03:43:01;9.00;99.90
37222;DHT22;23119;51.842;-2.230;2022-12-29T03:45:28;9.00;99.90
37222;DHT22;23119;51.842;-2.230;2022-12-29T03:47:56;8.90;99.90
37222;DHT22;23119;51.842;-2.230;2022-12-29T03:50:21;8.90;99.90
37222;DHT22;23119;51.842;-2.230;2022-12-29T03:53:07;8.80;99.90
37222;DHT22;23119;51.842;-2.230;2022-12-29T03:55:37;8.80;99.90
37222;DHT22;23119;51.842;-2.230;2022-12-29T03:58:03;8.80;99.90
37222;DHT22;23119;51.842;-2.230;2022-12-29T04:00:28;8.80;99.90
37222;DHT22;23119;51.842;-2.230;2022-12-29T04:02:59;8.80;99.90
37222;DHT22;23119;51.842;-2.230;2022-12-29T04:05:25;8.80;99.90
37222;DHT22;23119;51.842;-2.230;2022-12-29T04:07:58;8.80;99.90
37222;DHT22;23119;51.842;-2.230;2022-12-29T04:10:25;8.80;99.90
37222;DHT22;23119;51.842;-2.230;2022-12-29T04:12:58;8.90;99.90
37222;DHT22;23119;51.842;-2.230;2022-12-29T04:15:24;8.90;99.90
37222;DHT22;23119;51.842;-2.230;2022-12-29T04:17:54;8.90;99.90
37222;DHT22;23119;51.842;-2.230;2022-12-29T04:20:20;8.80;99.90
37222;DHT22;23119;51.842;-2.230;2022-12-29T04:23:07;8.90;99.90
37222;DHT22;23119;51.842;-2.230;2022-12-29T04:25:35;8.80;99.90
37222;DHT22;23119;51.842;-2.230;2022-12-29T04:28:04;8.80;99.90
37222;DHT22;23119;51.842;-2.230;2022-12-29T04:30:49;8.80;99.90
37222;DHT22;23119;51.842;-2.230;2022-12-29T04:33:25;8.80;99.90
37222;DHT22;23119;51.842;-2.230;2022-12-29T04:36:00;8.80;99.90
37222;DHT22;23119;51.842;-2.230;2022-12-29T04:38:28;8.80;99.90
37222;DHT22;23119;51.842;-2.230;2022-12-29T04:41:02;8.80;99.90
37222;DHT22;23119;51.842;-2.230;2022-12-29T04:43:30;8.80;99.90
37222;DHT22;23119;51.842;-2.230;2022-12-29T04:46:05;8.70;99.90
37222;DHT22;23119;51.842;-2.230;2022-12-29T04:48:34;8.70;99.90
37222;DHT22;23119;51.842;-2.230;2022-12-29T04:51:02;8.70;99.90
37222;DHT22;23119;51.842;-2.230;2022-12-29T04:53:28;8.80;99.90
37222;DHT22;23119;51.842;-2.230;2022-12-29T04:55:56;8.70;99.90
37222;DHT22;23119;51.842;-2.230;2022-12-29T04:58:22;8.70;99.90
37222;DHT22;23119;51.842;-2.230;2022-12-29T05:00:47;8.70;99.90
37222;DHT22;23119;51.842;-2.230;2022-12-29T05:03:15;8.70;99.90
37222;DHT22;23119;51.842;-2.230;2022-12-29T05:05:41;8.70;99.90
37222;DHT22;23119;51.842;-2.230;2022-12-29T05:08:09;8.70;99.90
37222;DHT22;23119;51.842;-2.230;2022-12-29T05:10:37;8.70;99.90
37222;DHT22;23119;51.842;-2.230;2022-12-29T05:13:05;8.60;99.90
37222;DHT22;23119;51.842;-2.230;2022-12-29T05:15:45;8.70;99.90
37222;DHT22;23119;51.842;-2.230;2022-12-29T05:18:13;8.60;99.90
37222;DHT22;23119;51.842;-2.230;2022-12-29T05:20:43;8.60;99.90
37222;DHT22;23119;51.842;-2.230;2022-12-29T05:23:16;8.60;99.90
37222;DHT22;23119;51.842;-2.230;2022-12-29T05:25:46;8.50;99.90
37222;DHT22;23119;51.842;-2.230;2022-12-29T05:28:14;8.50;99.90
37222;DHT22;23119;51.842;-2.230;2022-12-29T05:30:42;8.50;99.90
37222;DHT22;23119;51.842;-2.230;2022-12-29T05:33:15;8.50;99.90
37222;DHT22;23119;51.842;-2.230;2022-12-29T05:35:43;8.50;99.90
37222;DHT22;23119;51.842;-2.230;2022-12-29T05:38:09;8.50;99.90
37222;DHT22;23119;51.842;-2.230;2022-12-29T05:40:35;8.50;99.90
37222;DHT22;23119;51.842;-2.230;2022-12-29T05:43:03;8.50;99.90
37222;DHT22;23119;51.842;-2.230;2022-12-29T05:45:29;8.40;99.90
37222;DHT22;23119;51.842;-2.230;2022-12-29T05:47:57;8.40;99.90
37222;DHT22;23119;51.842;-2.230;2022-12-29T05:50:23;8.40;99.90
37222;DHT22;23119;51.842;-2.230;2022-12-29T05:52:48;8.30;99.90
37222;DHT22;23119;51.842;-2.230;2022-12-29T05:55:18;8.30;99.90
37222;DHT22;23119;51.842;-2.230;2022-12-29T05:58:04;8.20;99.90
37222;DHT22;23119;51.842;-2.230;2022-12-29T06:00:36;8.20;99.90
37222;DHT22;23119;51.842;-2.230;2022-12-29T06:03:02;8.20;99.90
37222;DHT22;23119;51.842;-2.230;2022-12-29T06:05:33;8.10;99.90
37222;DHT22;23119;51.842;-2.230;2022-12-29T06:08:02;8.10;99.90
37222;DHT22;23119;51.842;-2.230;2022-12-29T06:10:28;8.10;99.90
37222;DHT22;23119;51.842;-2.230;2022-12-29T06:13:01;8.00;99.90
37222;DHT22;23119;51.842;-2.230;2022-12-29T06:15:33;7.90;99.90
37222;DHT22;23119;51.842;-2.230;2022-12-29T06:18:03;8.00;99.90
37222;DHT22;23119;51.842;-2.230;2022-12-29T06:20:36;7.90;99.90
37222;DHT22;23119;51.842;-2.230;2022-12-29T06:23:04;7.90;99.90
37222;DHT22;23119;51.842;-2.230;2022-12-29T06:25:30;7.80;99.90
37222;DHT22;23119;51.842;-2.230;2022-12-29T06:28:05;7.80;99.90
37222;DHT22;23119;51.842;-2.230;2022-12-29T06:30:31;7.90;99.90
37222;DHT22;23119;51.842;-2.230;2022-12-29T06:33:08;7.90;99.90
37222;DHT22;23119;51.842;-2.230;2022-12-29T06:35:36;7.80;99.90
37222;DHT22;23119;51.842;-2.230;2022-12-29T06:38:05;7.90;99.90
37222;DHT22;23119;51.842;-2.230;2022-12-29T06:40:35;7.80;99.90
37222;DHT22;23119;51.842;-2.230;2022-12-29T06:43:04;7.80;99.90
37222;DHT22;23119;51.842;-2.230;2022-12-29T06:45:34;7.80;99.90
37222;DHT22;23119;51.842;-2.230;2022-12-29T06:48:00;7.80;99.90
37222;DHT22;23119;51.842;-2.230;2022-12-29T06:50:31;7.80;99.90
37222;DHT22;23119;51.842;-2.230;2022-12-29T06:53:14;7.70;99.90
37222;DHT22;23119;51.842;-2.230;2022-12-29T06:55:44;7.70;99.90
37222;DHT22;23119;51.842;-2.230;2022-12-29T06:58:12;7.60;99.90
37222;DHT22;23119;51.842;-2.230;2022-12-29T07:00:43;7.60;99.90
37222;DHT22;23119;51.842;-2.230;2022-12-29T07:03:10;7.60;99.90
37222;DHT22;23119;51.842;-2.230;2022-12-29T07:05:41;7.60;99.90
37222;DHT22;23119;51.842;-2.230;2022-12-29T07:08:11;7.60;99.90
37222;DHT22;23119;51.842;-2.230;2022-12-29T07:10:45;7.60;99.90
37222;DHT22;23119;51.842;-2.230;2022-12-29T07:13:11;7.60;99.90
37222;DHT22;23119;51.842;-2.230;2022-12-29T07:15:42;7.60;99.90
37222;DHT22;23119;51.842;-2.230;2022-12-29T07:18:08;7.70;99.90
37222;DHT22;23119;51.842;-2.230;2022-12-29T07:20:37;7.70;99.90
37222;DHT22;23119;51.842;-2.230;2022-12-29T07:23:05;7.70;99.90
37222;DHT22;23119;51.842;-2.230;2022-12-29T07:25:38;7.70;99.90
37222;DHT22;23119;51.842;-2.230;2022-12-29T07:28:11;7.80;99.90
37222;DHT22;23119;51.842;-2.230;2022-12-29T07:30:37;7.80;99.90
37222;DHT22;23119;51.842;-2.230;2022-12-29T07:33:06;7.80;99.90
37222;DHT22;23119;51.842;-2.230;2022-12-29T07:35:34;7.90;99.90
37222;DHT22;23119;51.842;-2.230;2022-12-29T07:38:20;7.90;99.90
37222;DHT22;23119;51.842;-2.230;2022-12-29T07:40:55;7.90;99.90
37222;DHT22;23119;51.842;-2.230;2022-12-29T07:43:23;7.90;99.90
37222;DHT22;23119;51.842;-2.230;2022-12-29T07:46:06;8.00;99.90
37222;DHT22;23119;51.842;-2.230;2022-12-29T07:48:45;8.00;99.90
37222;DHT22;23119;51.842;-2.230;2022-12-29T07:51:15;8.00;99.90
37222;DHT22;23119;51.842;-2.230;2022-12-29T07:53:43;8.00;99.90
37222;DHT22;23119;51.842;-2.230;2022-12-29T07:56:11;8.00;99.90
37222;DHT22;23119;51.842;-2.230;2022-12-29T07:58:40;8.10;99.90
37222;DHT22;23119;51.842;-2.230;2022-12-29T08:01:18;8.10;99.90
37222;DHT22;23119;51.842;-2.230;2022-12-29T08:03:46;8.10;99.90
37222;DHT22;23119;51.842;-2.230;2022-12-29T08:06:15;8.00;99.90
37222;DHT22;23119;51.842;-2.230;2022-12-29T08:08:45;8.10;99.90
37222;DHT22;23119;51.842;-2.230;2022-12-29T08:11:13;8.10;99.90
37222;DHT22;23119;51.842;-2.230;2022-12-29T08:13:40;8.10;99.90
37222;DHT22;23119;51.842;-2.230;2022-12-29T08:16:12;8.10;99.90
37222;DHT22;23119;51.842;-2.230;2022-12-29T08:18:42;8.10;99.90
37222;DHT22;23119;51.842;-2.230;2022-12-29T08:21:15;8.10;99.90
37222;DHT22;23119;51.842;-2.230;2022-12-29T08:23:49;8.00;99.90
37222;DHT22;23119;51.842;-2.230;2022-12-29T08:26:15;8.00;99.90
37222;DHT22;23119;51.842;-2.230;2022-12-29T08:28:46;8.00;99.90
37222;DHT22;23119;51.842;-2.230;2022-12-29T08:31:21;8.00;99.90
37222;DHT22;23119;51.842;-2.230;2022-12-29T08:34:05;8.10;99.90
37222;DHT22;23119;51.842;-2.230;2022-12-29T08:36:42;8.10;99.90
37222;DHT22;23119;51.842;-2.230;2022-12-29T08:39:11;8.10;99.90
37222;DHT22;23119;51.842;-2.230;2022-12-29T08:41:39;8.10;99.90
37222;DHT22;23119;51.842;-2.230;2022-12-29T08:44:08;8.10;99.90
37222;DHT22;23119;51.842;-2.230;2022-12-29T08:46:33;8.10;99.90
37222;DHT22;23119;51.842;-2.230;2022-12-29T08:49:02;8.20;99.90
37222;DHT22;23119;51.842;-2.230;2022-12-29T08:51:27;8.20;99.90
37222;DHT22;23119;51.842;-2.230;2022-12-29T08:53:53;8.20;99.90
37222;DHT22;23119;51.842;-2.230;2022-12-29T08:56:19;8.10;99.90
37222;DHT22;23119;51.842;-2.230;2022-12-29T08:58:52;8.10;99.90
37222;DHT22;23119;51.842;-2.230;2022-12-29T09:01:20;8.00;99.90
37222;DHT22;23119;51.842;-2.230;2022-12-29T09:03:47;8.00;99.90
37222;DHT22;23119;51.842;-2.230;2022-12-29T09:06:16;8.00;99.90
37222;DHT22;23119;51.842;-2.230;2022-12-29T09:08:44;8.00;99.90
37222;DHT22;23119;51.842;-2.230;2022-12-29T09:11:22;8.00;99.90
37222;DHT22;23119;51.842;-2.230;2022-12-29T09:13:51;8.00;99.90
37222;DHT22;23119;51.842;-2.230;2022-12-29T09:16:20;8.00;99.90
37222;DHT22;23119;51.842;-2.230;2022-12-29T09:18:46;7.90;99.90
37222;DHT22;23119;51.842;-2.230;2022-12-29T09:21:12;8.00;99.90
37222;DHT22;23119;51.842;-2.230;2022-12-29T09:23:38;8.10;99.90
37222;DHT22;23119;51.842;-2.230;2022-12-29T09:26:27;8.20;99.90
37222;DHT22;23119;51.842;-2.230;2022-12-29T09:28:55;8.30;99.90
37222;DHT22;23119;51.842;-2.230;2022-12-29T09:31:25;8.40;99.90
37222;DHT22;23119;51.842;-2.230;2022-12-29T09:33:54;8.60;99.90
37222;DHT22;23119;51.842;-2.230;2022-12-29T09:36:23;8.60;99.90
37222;DHT22;23119;51.842;-2.230;2022-12-29T09:38:48;8.80;99.90
37222;DHT22;23119;51.842;-2.230;2022-12-29T09:42:22;9.00;99.90
37222;DHT22;23119;51.842;-2.230;2022-12-29T09:46:59;9.20;99.90
37222;DHT22;23119;51.842;-2.230;2022-12-29T09:52:21;9.40;99.90
37222;DHT22;23119;51.842;-2.230;2022-12-29T09:55:16;9.60;99.90
37222;DHT22;23119;51.842;-2.230;2022-12-29T09:58:50;9.90;99.90
37222;DHT22;23119;51.842;-2.230;2022-12-29T10:04:22;11.00;99.90
37222;DHT22;23119;51.842;-2.230;2022-12-29T10:12:46;12.00;99.90
37222;DHT22;23119;51.842;-2.230;2022-12-29T10:19:03;12.70;99.90
37222;DHT22;23119;51.842;-2.230;2022-12-29T10:23:35;12.90;99.90
37222;DHT22;23119;51.842;-2.230;2022-12-29T10:26:17;13.00;99.90
37222;DHT22;23119;51.842;-2.230;2022-12-29T10:29:05;12.90;99.90
37222;DHT22;23119;51.842;-2.230;2022-12-29T10:34:36;12.00;99.90
37222;DHT22;23119;51.842;-2.230;2022-12-29T10:43:37;10.90;99.90
37222;DHT22;23119;51.842;-2.230;2022-12-29T10:46:11;10.80;99.90
37222;DHT22;23119;51.842;-2.230;2022-12-29T10:48:41;10.80;99.90
37222;DHT22;23119;51.842;-2.230;2022-12-29T10:51:24;10.70;99.90
37222;DHT22;23119;51.842;-2.230;2022-12-29T10:54:16;10.60;99.90
37222;DHT22;23119;51.842;-2.230;2022-12-29T10:56:53;10.70;99.90
37222;DHT22;23119;51.842;-2.230;2022-12-29T10:59:31;10.80;99.90
37222;DHT22;23119;51.842;-2.230;2022-12-29T11:07:29;10.60;99.90
37222;DHT22;23119;51.842;-2.230;2022-12-29T11:13:26;10.40;99.90
37222;DHT22;23119;51.842;-2.230;2022-12-29T11:15:57;10.40;99.90
37222;DHT22;23119;51.842;-2.230;2022-12-29T11:18:46;10.20;99.90
37222;DHT22;23119;51.842;-2.230;2022-12-29T11:21:32;10.20;99.90
37222;DHT22;23119;51.842;-2.230;2022-12-29T11:24:04;10.10;99.90
37222;DHT22;23119;51.842;-2.230;2022-12-29T11:26:31;10.10;99.90
37222;DHT22;23119;51.842;-2.230;2022-12-29T11:37:11;9.90;99.90
37222;DHT22;23119;51.842;-2.230;2022-12-29T11:39:45;9.90;99.90
37222;DHT22;23119;51.842;-2.230;2022-12-29T11:42:21;9.90;99.90
37222;DHT22;23119;51.842;-2.230;2022-12-29T11:44:49;10.00;99.90
37222;DHT22;23119;51.842;-2.230;2022-12-29T11:47:30;10.10;99.90
37222;DHT22;23119;51.842;-2.230;2022-12-29T11:50:05;10.20;99.90
37222;DHT22;23119;51.842;-2.230;2022-12-29T11:52:35;10.10;99.90
37222;DHT22;23119;51.842;-2.230;2022-12-29T11:55:06;10.10;99.90
37222;DHT22;23119;51.842;-2.230;2022-12-29T11:57:44;10.10;99.90
37222;DHT22;23119;51.842;-2.230;2022-12-29T12:00:31;10.10;99.90
37222;DHT22;23119;51.842;-2.230;2022-12-29T12:05:46;10.10;99.90
37222;DHT22;23119;51.842;-2.230;2022-12-29T12:08:37;10.00;99.90
37222;DHT22;23119;51.842;-2.230;2022-12-29T12:11:27;10.00;99.90
37222;DHT22;23119;51.842;-2.230;2022-12-29T12:16:52;9.80;99.90
37222;DHT22;23119;51.842;-2.230;2022-12-29T12:19:30;9.70;99.90
37222;DHT22;23119;51.842;-2.230;2022-12-29T12:22:16;9.60;99.90
37222;DHT22;23119;51.842;-2.230;2022-12-29T12:28:00;7.90;99.90
37222;DHT22;23119;51.842;-2.230;2022-12-29T12:30:36;9.30;99.90
37222;DHT22;23119;51.842;-2.230;2022-12-29T12:33:24;9.20;99.90
37222;DHT22;23119;51.842;-2.230;2022-12-29T12:36:05;9.10;99.90
37222;DHT22;23119;51.842;-2.230;2022-12-29T12:38:54;9.10;99.90
37222;DHT22;23119;51.842;-2.230;2022-12-29T12:50:35;8.90;99.90
37222;DHT22;23119;51.842;-2.230;2022-12-29T12:55:58;8.90;99.90
37222;DHT22;23119;51.842;-2.230;2022-12-29T12:58:56;8.90;99.90
37222;DHT22;23119;51.842;-2.230;2022-12-29T13:01:57;8.90;99.90
37222;DHT22;23119;51.842;-2.230;2022-12-29T13:04:37;8.90;99.90
37222;DHT22;23119;51.842;-2.230;2022-12-29T13:21:37;8.90;99.90
37222;DHT22;23119;51.842;-2.230;2022-12-29T13:27:09;8.80;99.90
37222;DHT22;23119;51.842;-2.230;2022-12-29T13:30:01;8.80;99.90
37222;DHT22;23119;51.842;-2.230;2022-12-29T13:36:05;8.60;99.90
37222;DHT22;23119;51.842;-2.230;2022-12-29T13:38:46;8.60;99.90
37222;DHT22;23119;51.842;-2.230;2022-12-29T13:41:37;8.60;99.90
37222;DHT22;23119;51.842;-2.230;2022-12-29T13:44:15;8.30;99.90
37222;DHT22;23119;51.842;-2.230;2022-12-29T13:46:48;8.80;99.90
37222;DHT22;23119;51.842;-2.230;2022-12-29T13:49:22;8.90;99.90
37222;DHT22;23119;51.842;-2.230;2022-12-29T13:51:58;8.90;99.90
37222;DHT22;23119;51.842;-2.230;2022-12-29T13:57:46;8.80;99.90
37222;DHT22;23119;51.842;-2.230;2022-12-29T14:00:22;8.70;99.90
37222;DHT22;23119;51.842;-2.230;2022-12-29T14:03:16;8.70;99.90
37222;DHT22;23119;51.842;-2.230;2022-12-29T14:08:44;8.60;99.90
37222;DHT22;23119;51.842;-2.230;2022-12-29T14:11:14;8.50;99.90
37222;DHT22;23119;51.842;-2.230;2022-12-29T14:13:45;8.50;99.90
37222;DHT22;23119;51.842;-2.230;2022-12-29T14:16:30;8.50;99.90
37222;DHT22;23119;51.842;-2.230;2022-12-29T14:19:19;8.50;99.90
37222;DHT22;23119;51.842;-2.230;2022-12-29T14:22:02;8.50;99.90
37222;DHT22;23119;51.842;-2.230;2022-12-29T14:24:43;8.50;99.90
37222;DHT22;23119;51.842;-2.230;2022-12-29T14:34:47;8.50;99.90
37222;DHT22;23119;51.842;-2.230;2022-12-29T14:37:35;8.50;99.90
37222;DHT22;23119;51.842;-2.230;2022-12-29T14:40:24;8.40;99.90
37222;DHT22;23119;51.842;-2.230;2022-12-29T14:42:55;8.40;99.90
37222;DHT22;23119;51.842;-2.230;2022-12-29T14:45:29;8.40;99.90
37222;DHT22;23119;51.842;-2.230;2022-12-29T14:47:55;8.50;99.90
37222;DHT22;23119;51.842;-2.230;2022-12-29T14:53:50;8.40;99.90
37222;DHT22;23119;51.842;-2.230;2022-12-29T14:55:59;8.40;99.90
37222;DHT22;23119;51.842;-2.230;2022-12-29T15:01:36;8.40;99.90
37222;DHT22;23119;51.842;-2.230;2022-12-29T15:04:19;8.40;99.90
37222;DHT22;23119;51.842;-2.230;2022-12-29T15:06:50;8.40;99.90
37222;DHT22;23119;51.842;-2.230;2022-12-29T15:09:30;8.40;99.90
37222;DHT22;23119;51.842;-2.230;2022-12-29T15:15:24;8.30;99.90
37222;DHT22;23119;51.842;-2.230;2022-12-29T15:17:53;8.30;99.90
37222;DHT22;23119;51.842;-2.230;2022-12-29T15:20:34;8.30;99.90
37222;DHT22;23119;51.842;-2.230;2022-12-29T15:23:10;8.30;99.90
37222;DHT22;23119;51.842;-2.230;2022-12-29T15:25:55;8.30;99.90
37222;DHT22;23119;51.842;-2.230;2022-12-29T15:28:36;8.20;99.90
37222;DHT22;23119;51.842;-2.230;2022-12-29T15:31:10;8.20;99.90
37222;DHT22;23119;51.842;-2.230;2022-12-29T15:33:41;8.20;99.90
37222;DHT22;23119;51.842;-2.230;2022-12-29T15:36:36;8.20;99.90
37222;DHT22;23119;51.842;-2.230;2022-12-29T15:39:28;8.10;99.90
37222;DHT22;23119;51.842;-2.230;2022-12-29T15:42:09;8.00;99.90
37222;DHT22;23119;51.842;-2.230;2022-12-29T15:44:48;8.00;99.90
37222;DHT22;23119;51.842;-2.230;2022-12-29T15:47:21;7.90;99.90
37222;DHT22;23119;51.842;-2.230;2022-12-29T15:50:05;7.90;99.90
37222;DHT22;23119;51.842;-2.230;2022-12-29T15:52:34;7.80;99.90
37222;DHT22;23119;51.842;-2.230;2022-12-29T15:55:09;7.80;99.90
37222;DHT22;23119;51.842;-2.230;2022-12-29T15:57:45;7.70;99.90
37222;DHT22;23119;51.842;-2.230;2022-12-29T16:00:31;7.60;99.90
37222;DHT22;23119;51.842;-2.230;2022-12-29T16:03:02;7.60;99.90
37222;DHT22;23119;51.842;-2.230;2022-12-29T16:05:38;7.60;99.90
37222;DHT22;23119;51.842;-2.230;2022-12-29T16:10:56;7.50;99.90
37222;DHT22;23119;51.842;-2.230;2022-12-29T16:13:32;7.50;99.90
37222;DHT22;23119;51.842;-2.230;2022-12-29T16:16:16;7.40;99.90
37222;DHT22;23119;51.842;-2.230;2022-12-29T16:18:52;7.40;99.90
37222;DHT22;23119;51.842;-2.230;2022-12-29T16:21:42;7.30;99.90
37222;DHT22;23119;51.842;-2.230;2022-12-29T16:24:36;7.30;99.90
37222;DHT22;23119;51.842;-2.230;2022-12-29T16:27:13;7.30;99.90
37222;DHT22;23119;51.842;-2.230;2022-12-29T16:30:02;7.30;99.90
37222;DHT22;23119;51.842;-2.230;2022-12-29T16:32:31;7.20;99.90
37222;DHT22;23119;51.842;-2.230;2022-12-29T16:35:24;7.20;99.90
37222;DHT22;23119;51.842;-2.230;2022-12-29T16:38:20;7.10;99.90
37222;DHT22;23119;51.842;-2.230;2022-12-29T16:40:57;7.10;99.90
37222;DHT22;23119;51.842;-2.230;2022-12-29T16:48:35;7.10;99.90
37222;DHT22;23119;51.842;-2.230;2022-12-29T16:51:17;7.10;99.90
37222;DHT22;23119;51.842;-2.230;2022-12-29T16:54:00;7.00;99.90
37222;DHT22;23119;51.842;-2.230;2022-12-29T16:56:27;7.00;99.90
37222;DHT22;23119;51.842;-2.230;2022-12-29T16:59:09;7.00;99.90
37222;DHT22;23119;51.842;-2.230;2022-12-29T17:01:48;6.90;99.90
37222;DHT22;23119;51.842;-2.230;2022-12-29T17:04:21;6.90;99.90
37222;DHT22;23119;51.842;-2.230;2022-12-29T17:06:47;6.90;99.90
37222;DHT22;23119;51.842;-2.230;2022-12-29T17:09:24;6.90;99.90
37222;DHT22;23119;51.842;-2.230;2022-12-29T17:12:00;6.90;99.90
37222;DHT22;23119;51.842;-2.230;2022-12-29T17:14:35;6.80;99.90
37222;DHT22;23119;51.842;-2.230;2022-12-29T17:17:05;6.80;99.90
37222;DHT22;23119;51.842;-2.230;2022-12-29T17:19:38;6.80;99.90
37222;DHT22;23119;51.842;-2.230;2022-12-29T17:22:16;6.80;99.90
37222;DHT22;23119;51.842;-2.230;2022-12-29T17:24:47;6.80;99.90
37222;DHT22;23119;51.842;-2.230;2022-12-29T17:27:29;6.70;99.90
37222;DHT22;23119;51.842;-2.230;2022-12-29T17:30:16;6.80;99.90
37222;DHT22;23119;51.842;-2.230;2022-12-29T17:33:00;6.70;99.90
37222;DHT22;23119;51.842;-2.230;2022-12-29T17:35:29;6.70;99.90
37222;DHT22;23119;51.842;-2.230;2022-12-29T17:38:00;6.70;99.90
37222;DHT22;23119;51.842;-2.230;2022-12-29T17:40:29;6.70;99.90
37222;DHT22;23119;51.842;-2.230;2022-12-29T17:42:58;6.60;99.90
37222;DHT22;23119;51.842;-2.230;2022-12-29T17:45:29;6.50;99.90
37222;DHT22;23119;51.842;-2.230;2022-12-29T17:48:00;6.50;99.90
37222;DHT22;23119;51.842;-2.230;2022-12-29T17:50:27;6.50;99.90
37222;DHT22;23119;51.842;-2.230;2022-12-29T17:53:03;6.50;99.90
37222;DHT22;23119;51.842;-2.230;2022-12-29T17:55:30;6.40;99.90
37222;DHT22;23119;51.842;-2.230;2022-12-29T17:57:58;6.40;99.90
37222;DHT22;23119;51.842;-2.230;2022-12-29T18:00:26;6.40;99.90
37222;DHT22;23119;51.842;-2.230;2022-12-29T18:02:53;6.40;99.90
37222;DHT22;23119;51.842;-2.230;2022-12-29T18:05:23;6.40;99.90
37222;DHT22;23119;51.842;-2.230;2022-12-29T18:07:56;6.40;99.90
37222;DHT22;23119;51.842;-2.230;2022-12-29T18:10:28;6.40;99.90
37222;DHT22;23119;51.842;-2.230;2022-12-29T18:12:59;6.50;99.90
37222;DHT22;23119;51.842;-2.230;2022-12-29T18:15:30;6.50;99.90
37222;DHT22;23119;51.842;-2.230;2022-12-29T18:18:09;6.40;99.90
37222;DHT22;23119;51.842;-2.230;2022-12-29T18:20:41;6.50;99.90
37222;DHT22;23119;51.842;-2.230;2022-12-29T18:25:55;6.40;99.90
37222;DHT22;23119;51.842;-2.230;2022-12-29T18:28:24;6.50;99.90
37222;DHT22;23119;51.842;-2.230;2022-12-29T18:31:13;6.50;99.90
37222;DHT22;23119;51.842;-2.230;2022-12-29T18:33:46;6.50;99.90
37222;DHT22;23119;51.842;-2.230;2022-12-29T18:36:18;6.50;99.90
37222;DHT22;23119;51.842;-2.230;2022-12-29T18:38:45;6.50;99.90
37222;DHT22;23119;51.842;-2.230;2022-12-29T18:41:37;6.50;99.90
37222;DHT22;23119;51.842;-2.230;2022-12-29T18:44:12;6.50;99.90
37222;DHT22;23119;51.842;-2.230;2022-12-29T18:46:40;6.50;99.90
37222;DHT22;23119;51.842;-2.230;2022-12-29T18:49:06;6.50;99.90
37222;DHT22;23119;51.842;-2.230;2022-12-29T18:51:31;6.50;99.90
37222;DHT22;23119;51.842;-2.230;2022-12-29T18:53:58;6.50;99.90